Time;durP1;ratioP1;P1;durP2;ratioP2;P2;SDS_P1;SDS_P2;PMS_P1;PMS_P2;Temp;Humidity;BMP_temperature;BMP_pressure;BME280_temperature;BME280_humidity;BME280_pressure;Samples;Min_cycle;Max_cycle;Signal;HPM_P1;HPM_P2
2023/08/31 00:01:16;;;;;;;20.20;3.80;;;41.40;59.10;;;;;;5067040;28;20017;-63
2023/08/31 00:03:44;;;;;;;22.40;4.30;;;41.30;59.60;;;;;;5066928;28;20519;-61
2023/08/31 00:06:10;;;;;;;18.13;3.92;;;41.20;59.90;;;;;;5067353;28;20016;-60
2023/08/31 00:08:37;;;;;;;23.45;4.90;;;41.00;60.40;;;;;;5066072;28;20023;-60
2023/08/31 00:11:03;;;;;;;24.75;7.25;;;40.90;60.40;;;;;;5064432;28;20015;-63
2023/08/31 00:13:30;;;;;;;27.58;5.10;;;40.90;61.70;;;;;;5066923;28;20024;-62
2023/08/31 00:15:57;;;;;;;20.50;4.30;;;40.80;62.50;;;;;;5068899;28;20025;-61
2023/08/31 00:18:25;;;;;;;23.98;4.25;;;40.90;62.30;;;;;;5065697;28;20075;-63
2023/08/31 00:20:51;;;;;;;23.08;4.68;;;40.90;62.70;;;;;;5070636;28;20052;-62
2023/08/31 00:23:18;;;;;;;20.70;4.60;;;40.90;62.00;;;;;;5066407;28;20020;-61
2023/08/31 00:25:47;;;;;;;18.08;3.78;;;40.70;62.10;;;;;;5065904;28;20115;-61
2023/08/31 00:28:15;;;;;;;19.65;4.13;;;40.60;62.10;;;;;;5066588;28;20070;-57
2023/08/31 00:30:44;;;;;;;18.13;4.13;;;40.60;62.50;;;;;;5066818;28;20012;-63
2023/08/31 00:33:11;;;;;;;19.65;3.70;;;40.50;63.00;;;;;;5065596;28;20484;-61
2023/08/31 00:35:43;;;;;;;15.80;3.70;;;40.50;63.30;;;;;;5065716;28;20020;-60
2023/08/31 00:38:10;;;;;;;14.82;4.07;;;40.40;62.90;;;;;;5065453;28;20032;-59
2023/08/31 00:40:44;;;;;;;16.35;3.83;;;40.50;62.50;;;;;;5066050;28;20024;-60
2023/08/31 00:43:11;;;;;;;20.98;3.63;;;40.50;62.70;;;;;;5065966;28;20021;-60
2023/08/31 00:45:40;;;;;;;20.13;4.00;;;40.50;62.10;;;;;;5066683;28;20021;-60
2023/08/31 00:48:07;;;;;;;13.38;3.72;;;40.40;62.90;;;;;;5070369;28;20016;-61
2023/08/31 00:50:33;;;;;;;16.65;3.55;;;40.50;61.80;;;;;;5067117;28;20059;-60
2023/08/31 00:53:00;;;;;;;18.33;4.10;;;40.40;61.00;;;;;;5067081;28;20065;-61
2023/08/31 00:55:26;;;;;;;14.00;3.67;;;40.30;60.60;;;;;;5068673;28;20046;-61
2023/08/31 00:57:53;;;;;;;20.65;3.55;;;40.30;61.20;;;;;;5066675;28;20486;-60
2023/08/31 01:00:21;;;;;;;13.50;3.67;;;40.20;59.80;;;;;;5066810;28;20024;-59
2023/08/31 01:03:12;;;;;;;18.92;3.80;;;40.10;60.10;;;;;;5064850;28;20025;-62
2023/08/31 01:06:02;;;;;;;21.73;4.03;;;40.10;60.00;;;;;;5068780;28;20520;-61
2023/08/31 01:08:44;;;;;;;19.17;3.50;;;40.00;60.30;;;;;;5073470;28;20095;-62
2023/08/31 01:11:21;;;;;;;15.68;3.80;;;40.00;60.90;;;;;;5070387;28;20017;-60
2023/08/31 01:13:54;;;;;;;13.48;3.72;;;39.90;60.40;;;;;;5066447;28;20029;-63
2023/08/31 01:16:24;;;;;;;16.02;3.58;;;39.80;60.70;;;;;;5069166;28;20448;-63
2023/08/31 01:18:52;;;;;;;21.05;3.38;;;39.70;61.50;;;;;;5072270;28;21454;-63
2023/08/31 01:21:28;;;;;;;23.13;4.13;;;39.70;62.60;;;;;;5068735;28;20012;-61
2023/08/31 01:23:56;;;;;;;17.55;3.95;;;39.60;61.70;;;;;;5069300;28;20464;-62
2023/08/31 01:26:23;;;;;;;16.02;3.63;;;39.60;60.10;;;;;;5068947;28;20105;-61
2023/08/31 01:28:51;;;;;;;18.70;3.60;;;39.60;60.90;;;;;;5070505;28;20059;-61
2023/08/31 01:31:18;;;;;;;14.02;3.03;;;39.50;59.50;;;;;;5072313;28;20020;-61
2023/08/31 01:33:44;;;;;;;18.38;4.20;;;39.40;60.60;;;;;;5067139;28;20096;-59
2023/08/31 01:36:31;;;;;;;20.63;4.53;;;39.30;61.40;;;;;;5070820;28;20048;-58
2023/08/31 01:39:56;;;;;;;15.30;3.95;;;39.30;59.90;;;;;;5072690;28;20015;-60
2023/08/31 01:42:26;;;;;;;19.85;4.15;;;39.20;61.30;;;;;;5004244;28;20054;-62
2023/08/31 01:44:53;;;;;;;17.20;3.67;;;39.20;62.40;;;;;;5004168;28;20497;-62
2023/08/31 01:47:20;;;;;;;21.17;4.10;;;39.10;61.90;;;;;;5004492;28;20034;-63
2023/08/31 01:49:47;;;;;;;18.88;3.55;;;39.00;62.40;;;;;;4991562;28;20364;-61
2023/08/31 01:52:13;;;;;;;16.65;3.60;;;38.80;61.90;;;;;;5006490;28;20031;-65
2023/08/31 01:54:40;;;;;;;15.77;3.90;;;38.80;62.80;;;;;;5014973;28;20030;-60
2023/08/31 01:57:06;;;;;;;19.80;4.05;;;38.80;63.80;;;;;;5010449;28;20115;-63
2023/08/31 01:59:35;;;;;;;18.15;3.95;;;38.70;64.40;;;;;;5011739;28;20075;-64
2023/08/31 02:02:01;;;;;;;21.13;3.80;;;38.60;64.10;;;;;;5012751;28;20022;-63
2023/08/31 02:04:28;;;;;;;25.55;4.40;;;38.60;65.00;;;;;;5007380;28;20057;-58
2023/08/31 02:06:56;;;;;;;17.95;3.88;;;38.50;65.20;;;;;;5007896;28;20029;-60
2023/08/31 02:09:22;;;;;;;23.83;4.30;;;38.40;67.30;;;;;;5006412;28;20080;-62
2023/08/31 02:11:48;;;;;;;22.05;3.80;;;38.40;68.60;;;;;;5018347;28;20022;-60
2023/08/31 02:14:15;;;;;;;18.30;4.13;;;38.30;69.20;;;;;;5067971;28;20012;-60
2023/08/31 02:16:41;;;;;;;24.90;5.35;;;38.20;69.60;;;;;;5072032;28;20009;-63
2023/08/31 02:19:07;;;;;;;24.23;4.40;;;38.10;70.10;;;;;;5070555;28;20013;-62
2023/08/31 02:21:34;;;;;;;15.65;4.00;;;38.00;70.10;;;;;;5072077;28;20024;-63
2023/08/31 02:24:00;;;;;;;21.05;3.90;;;38.00;70.90;;;;;;5070248;28;20079;-63
2023/08/31 02:26:26;;;;;;;19.90;4.30;;;37.90;70.30;;;;;;5068414;28;20012;-63
2023/08/31 02:28:53;;;;;;;20.00;4.95;;;37.90;70.60;;;;;;5068859;28;20044;-63
2023/08/31 02:31:19;;;;;;;42.42;5.93;;;37.80;70.90;;;;;;5068144;28;20052;-61
2023/08/31 02:33:47;;;;;;;25.02;4.55;;;37.70;70.90;;;;;;5069143;28;20020;-63
2023/08/31 02:36:14;;;;;;;32.95;5.20;;;37.70;71.30;;;;;;5067842;28;20097;-58
2023/08/31 02:38:40;;;;;;;16.65;3.92;;;37.70;71.70;;;;;;5069004;28;20044;-60
2023/08/31 02:41:07;;;;;;;18.15;4.88;;;37.60;72.00;;;;;;5068792;28;20025;-60
2023/08/31 02:43:33;;;;;;;24.15;5.15;;;37.50;72.40;;;;;;5072237;28;20100;-65
2023/08/31 02:46:03;;;;;;;31.02;5.05;;;37.50;72.60;;;;;;5050143;28;20443;-61
2023/08/31 02:48:33;;;;;;;20.98;5.05;;;37.40;72.30;;;;;;5069113;28;20016;-63
2023/08/31 02:51:03;;;;;;;21.02;4.95;;;37.30;72.40;;;;;;5051117;28;20036;-61
2023/08/31 02:53:32;;;;;;;15.57;4.60;;;37.30;72.70;;;;;;5067227;28;20039;-60
2023/08/31 02:55:59;;;;;;;31.90;5.80;;;37.30;73.20;;;;;;5068232;28;20024;-62
2023/08/31 02:58:25;;;;;;;21.52;4.93;;;37.20;73.50;;;;;;5067147;28;20023;-63
2023/08/31 03:00:53;;;;;;;17.83;5.07;;;37.20;72.50;;;;;;5067592;28;20078;-61
2023/08/31 03:03:19;;;;;;;30.13;5.00;;;37.10;72.90;;;;;;5066807;28;20025;-61
2023/08/31 03:05:47;;;;;;;16.70;4.82;;;37.00;73.30;;;;;;5066605;28;20036;-60
2023/08/31 03:08:15;;;;;;;16.42;3.90;;;36.90;72.90;;;;;;5067695;28;20017;-61
2023/08/31 03:10:42;;;;;;;19.67;4.38;;;36.80;72.60;;;;;;5068008;28;20013;-62
2023/08/31 03:13:08;;;;;;;25.95;4.47;;;36.70;73.60;;;;;;5069005;28;20023;-59
2023/08/31 03:15:35;;;;;;;14.85;4.05;;;36.60;73.50;;;;;;5068259;28;20104;-61
2023/08/31 03:18:02;;;;;;;28.10;4.25;;;36.60;73.70;;;;;;5066931;28;20016;-62
2023/08/31 03:20:28;;;;;;;21.10;4.65;;;36.60;73.50;;;;;;5068798;28;20028;-62
2023/08/31 03:22:55;;;;;;;19.95;4.32;;;36.50;73.70;;;;;;5067684;28;20024;-62
2023/08/31 03:25:21;;;;;;;21.98;4.88;;;36.50;74.40;;;;;;5067823;28;20474;-62
2023/08/31 03:27:47;;;;;;;19.67;4.65;;;36.50;75.10;;;;;;5068345;28;20024;-62
2023/08/31 03:30:14;;;;;;;25.80;4.97;;;36.40;75.60;;;;;;5066294;28;20014;-62
2023/08/31 03:32:40;;;;;;;19.50;4.65;;;36.40;76.10;;;;;;5067592;28;20017;-62
2023/08/31 03:35:07;;;;;;;19.65;5.43;;;36.40;76.60;;;;;;5068043;28;20012;-62
2023/08/31 03:37:33;;;;;;;23.90;4.93;;;36.30;77.30;;;;;;5068074;28;20455;-61
2023/08/31 03:40:00;;;;;;;24.60;6.57;;;36.30;78.60;;;;;;5071777;28;20020;-61
2023/08/31 03:42:26;;;;;;;27.83;8.25;;;36.30;79.60;;;;;;5067602;28;20054;-61
2023/08/31 03:44:53;;;;;;;22.17;8.95;;;36.20;80.40;;;;;;5066473;28;21833;-62
2023/08/31 03:47:19;;;;;;;23.80;8.63;;;36.20;81.60;;;;;;5070817;28;20015;-63
2023/08/31 03:49:45;;;;;;;23.83;7.68;;;36.10;83.20;;;;;;5067992;28;20100;-62
2023/08/31 03:52:12;;;;;;;24.83;7.50;;;36.10;84.40;;;;;;5068145;28;20016;-62
2023/08/31 03:54:38;;;;;;;33.03;6.32;;;36.00;85.20;;;;;;5067791;28;20028;-59
2023/08/31 03:57:04;;;;;;;24.30;6.85;;;35.90;86.50;;;;;;5066302;28;20525;-61
2023/08/31 03:59:31;;;;;;;24.40;5.78;;;35.90;87.60;;;;;;5067680;28;20500;-65
2023/08/31 04:01:57;;;;;;;17.63;5.72;;;35.70;88.90;;;;;;5068402;28;20056;-63
2023/08/31 04:04:24;;;;;;;22.02;6.18;;;35.60;89.60;;;;;;5067267;28;20040;-59
2023/08/31 04:06:51;;;;;;;22.38;5.72;;;35.60;90.20;;;;;;5067141;28;20016;-61
2023/08/31 04:09:17;;;;;;;26.83;5.72;;;35.60;90.60;;;;;;5067507;28;20009;-63
2023/08/31 04:11:43;;;;;;;19.02;4.88;;;35.50;91.00;;;;;;5066994;28;20074;-61
2023/08/31 04:14:10;;;;;;;20.85;5.18;;;35.50;91.20;;;;;;5066562;28;20412;-66
2023/08/31 04:16:36;;;;;;;23.20;5.85;;;35.40;91.50;;;;;;5067461;28;20027;-61
2023/08/31 04:19:03;;;;;;;26.67;6.03;;;35.40;91.80;;;;;;5066365;28;20012;-61
2023/08/31 04:21:30;;;;;;;32.33;5.63;;;35.30;92.30;;;;;;5066649;28;20032;-63
2023/08/31 04:23:59;;;;;;;24.58;5.65;;;35.30;92.60;;;;;;5067457;28;20023;-63
2023/08/31 04:26:26;;;;;;;22.10;5.75;;;35.30;92.80;;;;;;5066906;28;20021;-61
2023/08/31 04:28:52;;;;;;;23.15;5.72;;;35.20;93.20;;;;;;5066902;28;20476;-61
2023/08/31 04:31:18;;;;;;;27.90;6.07;;;35.10;93.40;;;;;;5066008;28;20028;-60
2023/08/31 04:33:47;;;;;;;22.35;5.93;;;35.10;93.70;;;;;;5067827;28;20058;-61
2023/08/31 04:36:13;;;;;;;21.02;6.10;;;35.10;94.00;;;;;;5070216;28;20488;-61
2023/08/31 04:38:39;;;;;;;25.10;5.75;;;35.10;94.10;;;;;;5069854;28;20047;-63
2023/08/31 04:41:06;;;;;;;28.40;5.72;;;34.90;94.60;;;;;;5072058;28;20014;-63
2023/08/31 04:43:32;;;;;;;24.48;5.50;;;34.90;94.90;;;;;;5055843;28;20447;-62
2023/08/31 04:45:59;;;;;;;29.60;6.00;;;35.00;95.10;;;;;;5073240;28;20089;-64
2023/08/31 04:48:25;;;;;;;23.25;5.75;;;35.00;95.10;;;;;;5070261;28;20477;-61
2023/08/31 04:50:57;;;;;;;25.65;6.05;;;34.90;95.20;;;;;;5066857;28;20044;-62
2023/08/31 04:53:23;;;;;;;28.08;6.75;;;35.00;95.50;;;;;;5069049;28;20047;-61
2023/08/31 04:55:50;;;;;;;23.05;5.45;;;35.00;95.60;;;;;;5076466;28;20024;-63
2023/08/31 04:58:16;;;;;;;23.08;5.75;;;35.00;95.80;;;;;;5073358;28;20511;-61
2023/08/31 05:00:44;;;;;;;23.05;5.72;;;34.90;96.00;;;;;;5073586;28;20039;-60
2023/08/31 05:03:11;;;;;;;30.13;6.55;;;34.80;96.40;;;;;;5072243;28;20054;-60
2023/08/31 05:05:37;;;;;;;32.30;6.32;;;34.80;96.70;;;;;;5072567;28;20115;-60
2023/08/31 05:08:04;;;;;;;23.10;6.97;;;34.80;97.20;;;;;;5070564;28;20022;-62
2023/08/31 05:10:31;;;;;;;30.90;7.57;;;34.80;97.60;;;;;;5077076;28;20541;-61
2023/08/31 05:12:57;;;;;;;23.10;6.70;;;34.60;97.90;;;;;;5070641;28;20023;-62
2023/08/31 05:15:27;;;;;;;22.58;6.72;;;34.50;98.50;;;;;;5068199;28;20115;-62
2023/08/31 05:17:54;;;;;;;29.27;6.40;;;34.40;98.80;;;;;;5066953;28;20190;-62
2023/08/31 05:20:23;;;;;;;22.98;6.70;;;34.40;99.30;;;;;;5068579;28;20099;-62
2023/08/31 05:22:50;;;;;;;25.55;7.07;;;34.50;99.50;;;;;;5065851;28;20124;-62
2023/08/31 05:25:17;;;;;;;31.80;6.60;;;34.30;99.90;;;;;;5065487;28;20025;-62
2023/08/31 05:27:43;;;;;;;24.13;6.18;;;34.30;99.90;;;;;;5068631;28;20020;-60
2023/08/31 05:30:10;;;;;;;30.25;6.88;;;34.30;99.90;;;;;;5069830;28;20025;-61
2023/08/31 05:32:36;;;;;;;33.85;7.03;;;34.30;99.90;;;;;;5071012;28;20036;-60
2023/08/31 05:35:03;;;;;;;29.38;6.55;;;34.20;99.90;;;;;;5070390;28;20465;-61
2023/08/31 05:37:35;;;;;;;31.58;5.97;;;34.10;99.90;;;;;;5070151;28;20035;-58
2023/08/31 05:40:06;;;;;;;25.05;6.22;;;34.20;99.90;;;;;;5072808;28;20093;-61
2023/08/31 05:42:34;;;;;;;26.15;6.20;;;34.10;99.90;;;;;;5070502;28;20490;-63
2023/08/31 05:45:00;;;;;;;23.25;5.60;;;34.00;99.90;;;;;;5069147;28;20060;-66
2023/08/31 05:47:26;;;;;;;24.52;6.80;;;33.90;99.90;;;;;;5068672;28;20051;-65
2023/08/31 05:49:53;;;;;;;27.08;6.28;;;33.90;99.90;;;;;;5069337;28;20032;-64
2023/08/31 05:52:19;;;;;;;28.33;6.13;;;33.90;99.90;;;;;;5068141;28;20044;-64
2023/08/31 05:54:45;;;;;;;25.77;5.57;;;33.90;99.90;;;;;;5073067;28;20105;-62
2023/08/31 05:57:12;;;;;;;25.77;6.85;;;33.90;99.90;;;;;;5071473;28;20046;-64
2023/08/31 05:59:38;;;;;;;22.67;6.03;;;33.80;99.90;;;;;;5068963;28;20081;-66
2023/08/31 06:02:05;;;;;;;33.78;6.80;;;33.70;99.90;;;;;;5069287;28;20107;-62
2023/08/31 06:04:31;;;;;;;22.73;6.00;;;33.60;99.90;;;;;;5068390;28;20039;-65
2023/08/31 06:06:58;;;;;;;27.40;6.75;;;33.60;99.90;;;;;;5068388;28;20412;-63
2023/08/31 06:09:24;;;;;;;31.30;7.07;;;33.60;99.90;;;;;;5069926;28;20013;-66
2023/08/31 06:11:50;;;;;;;24.88;6.35;;;33.60;99.90;;;;;;5069256;28;20013;-64
2023/08/31 06:14:17;;;;;;;25.15;6.07;;;33.60;99.90;;;;;;5069441;28;20016;-63
2023/08/31 06:16:43;;;;;;;24.08;6.45;;;33.50;99.90;;;;;;5069201;28;20032;-63
2023/08/31 06:19:10;;;;;;;26.58;6.60;;;33.50;99.90;;;;;;5069193;28;20528;-64
2023/08/31 06:21:36;;;;;;;23.60;6.15;;;33.50;99.90;;;;;;5069339;28;20021;-65
2023/08/31 06:24:04;;;;;;;25.30;7.43;;;33.50;99.90;;;;;;5069483;28;20021;-64
2023/08/31 06:26:31;;;;;;;25.05;7.30;;;33.40;99.90;;;;;;5069904;28;20492;-62
2023/08/31 06:28:57;;;;;;;25.02;6.93;;;33.40;99.90;;;;;;5069546;28;20056;-63
2023/08/31 06:31:24;;;;;;;22.33;5.95;;;33.40;99.90;;;;;;5069391;28;20013;-65
2023/08/31 06:33:50;;;;;;;28.58;6.40;;;33.40;99.90;;;;;;5069219;28;20009;-64
2023/08/31 06:36:16;;;;;;;23.10;5.90;;;33.40;99.90;;;;;;5069454;28;20024;-63
2023/08/31 06:38:44;;;;;;;24.08;6.07;;;33.30;99.90;;;;;;5068958;28;20426;-65
2023/08/31 06:41:10;;;;;;;29.58;6.80;;;33.20;99.90;;;;;;5071916;28;20374;-65
2023/08/31 06:43:37;;;;;;;28.42;7.43;;;33.20;99.90;;;;;;5068906;28;20108;-64
2023/08/31 06:46:03;;;;;;;26.20;6.57;;;33.20;99.90;;;;;;5069387;28;20028;-62
2023/08/31 06:48:30;;;;;;;28.02;6.50;;;33.20;99.90;;;;;;5068148;28;20051;-64
2023/08/31 06:50:56;;;;;;;23.52;6.75;;;33.10;99.90;;;;;;5067987;28;20463;-64
2023/08/31 06:53:22;;;;;;;26.05;6.68;;;33.00;99.90;;;;;;5067912;28;20028;-63
2023/08/31 06:55:49;;;;;;;26.15;7.30;;;33.00;99.90;;;;;;5067377;28;20044;-64
2023/08/31 06:58:15;;;;;;;23.27;6.45;;;32.90;99.90;;;;;;5069518;28;20489;-65
2023/08/31 07:00:42;;;;;;;29.65;7.20;;;32.90;99.90;;;;;;5068222;28;20048;-64
2023/08/31 07:03:08;;;;;;;31.90;7.95;;;32.90;99.90;;;;;;5067176;28;21494;-64
2023/08/31 07:05:41;;;;;;;31.65;7.57;;;32.90;99.90;;;;;;5067690;28;20495;-63
2023/08/31 07:08:08;;;;;;;32.90;6.95;;;32.90;99.90;;;;;;5072437;28;20019;-66
2023/08/31 07:10:38;;;;;;;20.45;6.50;;;32.90;99.90;;;;;;5070182;28;20058;-64
2023/08/31 07:13:05;;;;;;;23.80;6.43;;;32.90;99.90;;;;;;5069558;28;20017;-65
2023/08/31 07:15:32;;;;;;;27.60;7.18;;;32.80;99.90;;;;;;5068600;28;20020;-64
2023/08/31 07:17:58;;;;;;;27.98;7.05;;;32.80;99.90;;;;;;5068031;28;20028;-64
2023/08/31 07:20:25;;;;;;;28.08;7.38;;;32.70;99.90;;;;;;5069080;28;20040;-63
2023/08/31 07:22:52;;;;;;;27.98;6.50;;;32.60;99.90;;;;;;5072085;28;20054;-64
2023/08/31 07:25:18;;;;;;;29.25;7.10;;;32.70;99.90;;;;;;5068443;28;21239;-63
2023/08/31 07:27:46;;;;;;;27.15;6.20;;;32.60;99.90;;;;;;5075832;28;20013;-65
2023/08/31 07:30:12;;;;;;;26.38;7.03;;;32.50;99.90;;;;;;5068378;28;20020;-65
2023/08/31 07:32:39;;;;;;;25.55;6.47;;;32.60;99.90;;;;;;5067814;28;20043;-65
2023/08/31 07:35:06;;;;;;;22.00;5.93;;;32.50;99.90;;;;;;5067881;28;20027;-66
2023/08/31 07:37:33;;;;;;;22.52;6.15;;;32.50;99.90;;;;;;5069698;28;20129;-66
2023/08/31 07:39:59;;;;;;;25.10;5.93;;;32.50;99.90;;;;;;5070501;28;20048;-66
2023/08/31 07:42:25;;;;;;;29.30;6.35;;;32.50;99.90;;;;;;5071201;28;20028;-66
2023/08/31 07:44:52;;;;;;;24.73;6.38;;;32.40;99.90;;;;;;5067928;28;20021;-65
2023/08/31 07:47:18;;;;;;;32.25;6.93;;;32.30;99.90;;;;;;5073841;28;20058;-68
2023/08/31 07:49:44;;;;;;;22.42;5.40;;;32.30;99.90;;;;;;5073786;28;20470;-66
2023/08/31 07:52:11;;;;;;;31.83;6.07;;;32.30;99.90;;;;;;5070104;28;20039;-65
2023/08/31 07:54:37;;;;;;;31.67;6.32;;;32.30;99.90;;;;;;5071717;28;20009;-63
2023/08/31 07:57:04;;;;;;;28.88;6.32;;;32.30;99.90;;;;;;5068343;28;20024;-67
2023/08/31 07:59:30;;;;;;;30.52;6.32;;;32.20;99.90;;;;;;5068254;28;20125;-67
2023/08/31 08:01:57;;;;;;;30.02;6.57;;;32.20;99.90;;;;;;5067710;28;20043;-68
2023/08/31 08:04:24;;;;;;;28.88;6.05;;;32.30;99.90;;;;;;5077616;28;20116;-68
2023/08/31 08:06:51;;;;;;;30.88;6.50;;;32.20;99.90;;;;;;5076036;28;20088;-64
2023/08/31 08:09:17;;;;;;;23.17;5.85;;;32.30;99.90;;;;;;5068202;28;20059;-66
2023/08/31 08:11:44;;;;;;;24.83;5.80;;;32.30;99.90;;;;;;5067258;28;20474;-67
2023/08/31 08:14:10;;;;;;;23.27;5.88;;;32.20;99.90;;;;;;5066385;28;20043;-67
2023/08/31 08:16:36;;;;;;;23.58;5.57;;;32.20;99.90;;;;;;5074206;28;20636;-67
2023/08/31 08:19:03;;;;;;;28.15;5.80;;;32.10;99.90;;;;;;5067980;28;20492;-68
2023/08/31 08:21:29;;;;;;;25.38;5.45;;;32.20;99.90;;;;;;5075849;28;20489;-67
2023/08/31 08:23:56;;;;;;;27.10;6.22;;;32.10;99.90;;;;;;5071445;28;20043;-67
2023/08/31 08:26:22;;;;;;;28.52;6.10;;;32.20;99.90;;;;;;5073433;28;20039;-69
2023/08/31 08:28:48;;;;;;;22.55;5.82;;;32.10;99.90;;;;;;5078883;28;20026;-65
2023/08/31 08:31:15;;;;;;;25.35;5.97;;;32.10;99.90;;;;;;5071679;28;20140;-66
2023/08/31 08:33:41;;;;;;;28.95;6.95;;;32.00;99.90;;;;;;5072627;28;20050;-67
2023/08/31 08:36:08;;;;;;;21.55;5.20;;;32.00;99.90;;;;;;5070958;28;20100;-65
2023/08/31 08:38:34;;;;;;;27.88;6.57;;;31.90;99.90;;;;;;5076864;28;20099;-71
2023/08/31 08:41:07;;;;;;;27.30;6.18;;;32.00;99.90;;;;;;5072847;28;20016;-70
2023/08/31 08:43:35;;;;;;;27.95;6.60;;;32.00;99.90;;;;;;5071627;28;20115;-69
2023/08/31 08:46:09;;;;;;;28.05;6.35;;;31.90;99.90;;;;;;5075509;28;20054;-68
2023/08/31 08:48:38;;;;;;;24.23;6.20;;;31.90;99.90;;;;;;5073284;28;20080;-67
2023/08/31 08:51:07;;;;;;;22.38;6.35;;;31.90;99.90;;;;;;5068636;28;20039;-69
2023/08/31 08:53:34;;;;;;;26.67;7.03;;;31.80;99.90;;;;;;5066843;28;20051;-66
2023/08/31 08:56:01;;;;;;;29.02;6.35;;;31.80;99.90;;;;;;5068825;28;20040;-67
2023/08/31 08:58:27;;;;;;;34.75;7.65;;;31.90;99.90;;;;;;5067190;28;20012;-66
2023/08/31 09:00:58;;;;;;;27.05;6.85;;;31.90;99.90;;;;;;5067903;28;20036;-65
2023/08/31 09:03:24;;;;;;;26.33;6.50;;;31.90;99.90;;;;;;5072362;28;20048;-67
2023/08/31 09:05:54;;;;;;;37.53;7.72;;;31.80;99.90;;;;;;5070386;28;20421;-67
2023/08/31 09:08:28;;;;;;;33.50;7.80;;;31.80;99.90;;;;;;5080260;28;20075;-66
2023/08/31 09:10:58;;;;;;;29.20;7.05;;;31.80;99.90;;;;;;5076679;28;20102;-66
2023/08/31 09:13:29;;;;;;;24.48;7.43;;;31.80;99.90;;;;;;5082699;22;20088;-66
2023/08/31 09:15:59;;;;;;;30.88;7.43;;;31.70;99.90;;;;;;5020085;28;20013;-64
2023/08/31 09:18:32;;;;;;;28.10;6.88;;;31.70;99.90;;;;;;5022602;28;20060;-65
2023/08/31 09:21:00;;;;;;;32.95;8.05;;;31.70;99.90;;;;;;5020541;28;20052;-64
2023/08/31 09:23:27;;;;;;;30.80;8.38;;;31.70;99.90;;;;;;5026283;28;20029;-65
2023/08/31 09:25:55;;;;;;;32.63;8.23;;;31.70;99.90;;;;;;5024515;28;20113;-65
2023/08/31 09:28:26;;;;;;;33.00;9.63;;;31.70;99.90;;;;;;5019706;28;20413;-66
2023/08/31 09:30:53;;;;;;;32.38;10.02;;;31.70;99.90;;;;;;5024200;28;20036;-65
2023/08/31 09:33:21;;;;;;;27.90;7.38;;;31.70;99.90;;;;;;5021675;28;20063;-65
2023/08/31 09:35:55;;;;;;;32.28;7.05;;;31.80;99.90;;;;;;5023964;28;20022;-64
2023/08/31 09:38:22;;;;;;;28.30;6.57;;;31.80;99.90;;;;;;5022396;28;20021;-66
2023/08/31 09:40:48;;;;;;;27.95;7.13;;;31.80;99.90;;;;;;5021667;28;20096;-64
2023/08/31 09:43:23;;;;;;;27.33;7.20;;;31.70;99.90;;;;;;5022644;28;20092;-65
2023/08/31 09:45:50;;;;;;;23.45;6.25;;;31.80;99.90;;;;;;5019969;28;20105;-63
2023/08/31 09:48:17;;;;;;;24.05;6.20;;;31.70;99.90;;;;;;5018672;28;20020;-65
2023/08/31 09:50:48;;;;;;;24.90;6.18;;;31.70;99.90;;;;;;5021057;28;20036;-64
2023/08/31 09:53:17;;;;;;;22.60;6.22;;;31.70;99.90;;;;;;5014503;28;20054;-63
2023/08/31 09:55:44;;;;;;;27.55;7.13;;;31.70;99.90;;;;;;5013461;28;20018;-64
2023/08/31 09:58:11;;;;;;;24.65;6.53;;;31.70;99.90;;;;;;5020945;28;20047;-65
2023/08/31 10:00:38;;;;;;;31.92;7.03;;;31.70;99.90;;;;;;5017081;28;20048;-64
2023/08/31 10:03:05;;;;;;;30.50;7.18;;;31.70;99.90;;;;;;5019239;28;20378;-65
2023/08/31 10:05:35;;;;;;;25.83;7.18;;;31.60;99.90;;;;;;5016121;28;20059;-65
2023/08/31 10:08:02;;;;;;;24.05;6.78;;;31.60;99.90;;;;;;5015547;28;20040;-64
2023/08/31 10:10:30;;;;;;;22.13;6.63;;;31.50;99.90;;;;;;5016344;28;20504;-63
2023/08/31 10:12:58;;;;;;;27.38;6.78;;;31.60;99.90;;;;;;5017025;28;20055;-62
2023/08/31 10:15:32;;;;;;;27.90;7.22;;;31.60;99.90;;;;;;5020320;28;20110;-65
2023/08/31 10:18:00;;;;;;;24.05;6.32;;;31.60;99.90;;;;;;5017338;28;20109;-65
2023/08/31 10:20:33;;;;;;;27.20;7.65;;;31.60;99.90;;;;;;5010571;28;20178;-65
2023/08/31 10:23:05;;;;;;;25.60;6.65;;;31.60;99.90;;;;;;5014942;28;20401;-65
2023/08/31 10:25:50;;;;;;;27.45;7.13;;;31.60;99.90;;;;;;5017886;28;20062;-64
2023/08/31 10:28:24;;;;;;;25.75;7.32;;;31.60;99.90;;;;;;5011097;28;20048;-65
2023/08/31 10:31:03;;;;;;;28.15;7.20;;;31.60;99.90;;;;;;5045698;23;20086;-64
2023/08/31 10:33:32;;;;;;;23.33;7.20;;;31.60;99.90;;;;;;5017009;28;20072;-64
2023/08/31 10:35:59;;;;;;;24.83;6.80;;;31.70;99.90;;;;;;5024549;28;20040;-65
2023/08/31 10:38:27;;;;;;;28.70;7.47;;;31.70;99.90;;;;;;5021538;28;20054;-65
2023/08/31 10:41:09;;;;;;;25.38;6.72;;;31.70;99.90;;;;;;5019298;28;20054;-66
2023/08/31 10:43:45;;;;;;;24.58;6.38;;;31.70;99.90;;;;;;5025379;28;20010;-65
2023/08/31 10:46:18;;;;;;;26.17;5.88;;;31.70;99.90;;;;;;5020545;28;20417;-65
2023/08/31 10:49:11;;;;;;;30.35;7.05;;;31.70;99.90;;;;;;5014448;28;20020;-66
2023/08/31 10:51:40;;;;;;;26.08;6.55;;;31.70;99.90;;;;;;5011555;28;20063;-65
2023/08/31 10:54:18;;;;;;;20.60;6.68;;;31.70;99.90;;;;;;5014990;28;20044;-65
2023/08/31 10:56:57;;;;;;;26.05;7.03;;;31.70;99.90;;;;;;5015880;28;20021;-66
2023/08/31 10:59:25;;;;;;;23.50;7.47;;;31.80;99.90;;;;;;5021268;28;20025;-65
2023/08/31 11:02:04;;;;;;;21.10;6.28;;;31.80;99.90;;;;;;5015326;28;20017;-65
2023/08/31 11:04:51;;;;;;;23.65;6.40;;;31.80;99.90;;;;;;5015355;28;20029;-66
2023/08/31 11:07:18;;;;;;;25.02;6.22;;;31.90;99.90;;;;;;5016482;28;20071;-67
2023/08/31 11:09:46;;;;;;;26.77;7.22;;;31.80;99.90;;;;;;5010836;28;20144;-64
2023/08/31 11:12:13;;;;;;;31.17;7.20;;;31.90;99.90;;;;;;5018434;28;20575;-65
2023/08/31 11:14:40;;;;;;;23.45;6.65;;;31.90;99.90;;;;;;5014498;28;20024;-64
2023/08/31 11:17:07;;;;;;;22.42;6.63;;;31.90;99.90;;;;;;5016283;28;20014;-66
2023/08/31 11:19:34;;;;;;;27.58;7.13;;;31.90;99.90;;;;;;5018477;28;20021;-64
2023/08/31 11:22:04;;;;;;;25.23;7.90;;;31.90;99.90;;;;;;5012732;28;20017;-64
2023/08/31 11:24:32;;;;;;;20.92;6.32;;;31.90;99.90;;;;;;5017095;28;20080;-64
2023/08/31 11:26:58;;;;;;;16.15;5.40;;;31.80;99.90;;;;;;5013064;28;20105;-64
2023/08/31 11:29:25;;;;;;;23.92;6.03;;;31.80;99.90;;;;;;5014558;28;20468;-64
2023/08/31 11:31:51;;;;;;;22.52;5.75;;;31.80;99.90;;;;;;5013161;28;20417;-66
2023/08/31 11:34:19;;;;;;;23.80;6.95;;;31.80;99.90;;;;;;5014194;28;20047;-65
2023/08/31 11:36:47;;;;;;;18.92;5.03;;;31.80;99.90;;;;;;5012645;28;20045;-66
2023/08/31 11:39:14;;;;;;;21.58;6.03;;;31.70;99.90;;;;;;5016317;28;20025;-65
2023/08/31 11:41:42;;;;;;;21.58;5.20;;;31.70;99.90;;;;;;5013872;28;20131;-64
2023/08/31 11:44:16;;;;;;;19.60;5.25;;;31.80;99.90;;;;;;5013765;28;20108;-64
2023/08/31 11:46:46;;;;;;;15.68;5.00;;;31.80;99.90;;;;;;5016705;28;20032;-67
2023/08/31 11:49:12;;;;;;;21.10;5.78;;;31.70;99.90;;;;;;5015346;28;20493;-64
2023/08/31 11:51:40;;;;;;;20.67;5.53;;;31.80;99.90;;;;;;5012004;28;20539;-66
2023/08/31 11:54:06;;;;;;;18.60;5.43;;;31.80;99.90;;;;;;5015758;28;20022;-67
2023/08/31 11:56:40;;;;;;;20.02;5.82;;;31.80;99.90;;;;;;5015035;28;20017;-62
2023/08/31 11:59:16;;;;;;;22.67;5.78;;;31.80;99.90;;;;;;5016941;28;20098;-65
2023/08/31 12:01:50;;;;;;;17.98;5.35;;;31.90;99.90;;;;;;5013240;28;20453;-64
2023/08/31 12:04:22;;;;;;;16.20;5.53;;;31.90;99.90;;;;;;5012163;28;20014;-66
2023/08/31 12:06:51;;;;;;;25.27;5.68;;;31.90;99.90;;;;;;5017444;28;20049;-64
2023/08/31 12:09:18;;;;;;;18.95;4.80;;;32.00;99.90;;;;;;5014449;28;20030;-66
2023/08/31 12:11:53;;;;;;;15.82;5.07;;;32.00;99.90;;;;;;5011358;28;20485;-65
2023/08/31 12:14:24;;;;;;;16.63;5.15;;;32.00;99.90;;;;;;5013347;28;20028;-64
2023/08/31 12:16:52;;;;;;;13.57;4.35;;;32.00;99.90;;;;;;5009283;28;20378;-65
2023/08/31 12:19:19;;;;;;;15.48;4.32;;;32.00;99.90;;;;;;5016895;28;20022;-65
2023/08/31 12:21:46;;;;;;;21.88;5.55;;;32.00;99.90;;;;;;5014992;28;20010;-65
2023/08/31 12:24:13;;;;;;;21.83;5.25;;;32.00;99.90;;;;;;5016826;28;20033;-66
2023/08/31 12:26:41;;;;;;;17.83;4.88;;;32.00;99.90;;;;;;5013261;28;20101;-66
2023/08/31 12:29:07;;;;;;;23.92;5.88;;;32.00;99.90;;;;;;5011617;28;20026;-66
2023/08/31 12:31:34;;;;;;;28.08;5.70;;;32.00;99.90;;;;;;5013619;28;20030;-65
2023/08/31 12:34:04;;;;;;;20.95;5.38;;;32.00;99.90;;;;;;5011721;28;20478;-66
2023/08/31 12:36:31;;;;;;;17.88;5.00;;;32.00;99.90;;;;;;5012703;28;20059;-65
2023/08/31 12:39:01;;;;;;;19.23;5.75;;;32.00;99.90;;;;;;5014731;28;20022;-65
2023/08/31 12:41:28;;;;;;;14.98;5.25;;;32.00;99.90;;;;;;5015486;28;20021;-64